sensor_id;sensor_type;location;lat;lon;timestamp;pressure;altitude;pressure_sealevel;temperature;humidity
15880;BME280;61999;51.514;14.614;2022-10-13T00:01:08;100647.28;;;4.00;43.84
15880;BME280;61999;51.514;14.614;2022-10-13T00:03:38;100656.00;;;3.98;43.84
15880;BME280;61999;51.514;14.614;2022-10-13T00:06:08;100647.41;;;3.96;43.64
15880;BME280;61999;51.514;14.614;2022-10-13T00:08:39;100644.84;;;3.95;44.13
15880;BME280;61999;51.514;14.614;2022-10-13T00:11:10;100644.97;;;3.92;43.78
15880;BME280;61999;51.514;14.614;2022-10-13T00:13:39;100643.31;;;3.91;43.80
15880;BME280;61999;51.514;14.614;2022-10-13T00:16:08;100652.16;;;3.87;44.69
15880;BME280;61999;51.514;14.614;2022-10-13T00:18:37;100646.22;;;3.83;44.87
15880;BME280;61999;51.514;14.614;2022-10-13T00:21:07;100642.81;;;3.81;44.63
15880;BME280;61999;51.514;14.614;2022-10-13T00:23:38;100643.03;;;3.77;44.83
15880;BME280;61999;51.514;14.614;2022-10-13T00:26:09;100637.03;;;3.74;44.53
15880;BME280;61999;51.514;14.614;2022-10-13T00:28:38;100634.53;;;3.71;44.95
15880;BME280;61999;51.514;14.614;2022-10-13T00:31:16;100636.34;;;3.69;45.33
15880;BME280;61999;51.514;14.614;2022-10-13T00:33:44;100630.47;;;3.64;45.55
15880;BME280;61999;51.514;14.614;2022-10-13T00:36:12;100634.06;;;3.62;45.98
15880;BME280;61999;51.514;14.614;2022-10-13T00:38:41;100634.25;;;3.57;46.04
15880;BME280;61999;51.514;14.614;2022-10-13T00:41:09;100631.78;;;3.54;45.82
15880;BME280;61999;51.514;14.614;2022-10-13T00:43:54;100630.13;;;3.51;45.58
15880;BME280;61999;51.514;14.614;2022-10-13T00:46:26;100629.47;;;3.46;46.14
15880;BME280;61999;51.514;14.614;2022-10-13T00:48:55;100628.81;;;3.41;46.61
15880;BME280;61999;51.514;14.614;2022-10-13T00:51:29;100634.97;;;3.39;46.50
15880;BME280;61999;51.514;14.614;2022-10-13T00:54:02;100629.91;;;3.36;46.50
15880;BME280;61999;51.514;14.614;2022-10-13T00:56:34;100623.13;;;3.32;46.61
15880;BME280;61999;51.514;14.614;2022-10-13T00:59:08;100621.44;;;3.31;46.45
15880;BME280;61999;51.514;14.614;2022-10-13T01:01:37;100622.50;;;3.25;46.64
15880;BME280;61999;51.514;14.614;2022-10-13T01:04:05;100622.53;;;3.23;46.30
15880;BME280;61999;51.514;14.614;2022-10-13T01:06:33;100614.84;;;3.20;46.44
15880;BME280;61999;51.514;14.614;2022-10-13T01:09:03;100617.50;;;3.19;46.33
15880;BME280;61999;51.514;14.614;2022-10-13T01:11:50;100613.28;;;3.16;46.19
15880;BME280;61999;51.514;14.614;2022-10-13T01:14:33;100616.91;;;3.12;46.19
15880;BME280;61999;51.514;14.614;2022-10-13T01:17:13;100613.50;;;3.10;46.56
15880;BME280;61999;51.514;14.614;2022-10-13T01:20:09;100611.13;;;3.04;46.67
15880;BME280;61999;51.514;14.614;2022-10-13T01:22:59;100608.72;;;2.99;47.20
15880;BME280;61999;51.514;14.614;2022-10-13T01:25:52;100604.53;;;2.95;46.99
15880;BME280;61999;51.514;14.614;2022-10-13T01:28:52;100600.28;;;2.93;47.19
15880;BME280;61999;51.514;14.614;2022-10-13T01:31:35;100593.38;;;2.92;46.98
15880;BME280;61999;51.514;14.614;2022-10-13T01:34:16;100592.66;;;2.88;46.84
15880;BME280;61999;51.514;14.614;2022-10-13T01:36:55;100595.31;;;2.87;46.94
15880;BME280;61999;51.514;14.614;2022-10-13T01:39:37;100595.44;;;2.83;46.62
15880;BME280;61999;51.514;14.614;2022-10-13T01:42:14;100594.53;;;2.84;46.57
15880;BME280;61999;51.514;14.614;2022-10-13T01:44:50;100583.34;;;2.82;46.72
15880;BME280;61999;51.514;14.614;2022-10-13T01:47:22;100589.38;;;2.83;46.63
15880;BME280;61999;51.514;14.614;2022-10-13T01:49:53;100586.81;;;2.81;46.42
15880;BME280;61999;51.514;14.614;2022-10-13T01:52:26;100596.34;;;2.82;46.42
15880;BME280;61999;51.514;14.614;2022-10-13T01:55:06;100598.03;;;2.83;46.38
15880;BME280;61999;51.514;14.614;2022-10-13T01:57:37;100581.63;;;2.81;46.57
15880;BME280;61999;51.514;14.614;2022-10-13T02:00:10;100588.66;;;2.79;45.96
15880;BME280;61999;51.514;14.614;2022-10-13T02:02:51;100575.66;;;2.79;46.37
15880;BME280;61999;51.514;14.614;2022-10-13T02:05:35;100576.53;;;2.78;46.14
15880;BME280;61999;51.514;14.614;2022-10-13T02:08:14;100580.06;;;2.77;46.29
15880;BME280;61999;51.514;14.614;2022-10-13T02:10:52;100573.16;;;2.76;45.94
15880;BME280;61999;51.514;14.614;2022-10-13T02:13:27;100571.44;;;2.75;46.22
15880;BME280;61999;51.514;14.614;2022-10-13T02:15:59;100571.44;;;2.75;45.92
15880;BME280;61999;51.514;14.614;2022-10-13T02:18:33;100568.00;;;2.75;45.99
15880;BME280;61999;51.514;14.614;2022-10-13T02:21:03;100568.97;;;2.72;45.96
15880;BME280;61999;51.514;14.614;2022-10-13T02:23:31;100564.59;;;2.73;46.07
15880;BME280;61999;51.514;14.614;2022-10-13T02:25:59;100568.97;;;2.72;46.02
15880;BME280;61999;51.514;14.614;2022-10-13T02:28:28;100563.88;;;2.69;46.36
15880;BME280;61999;51.514;14.614;2022-10-13T02:30:56;100575.22;;;2.68;46.20
15880;BME280;61999;51.514;14.614;2022-10-13T02:33:24;100563.06;;;2.67;46.22
15880;BME280;61999;51.514;14.614;2022-10-13T02:35:53;100563.06;;;2.67;46.20
15880;BME280;61999;51.514;14.614;2022-10-13T02:38:21;100569.19;;;2.66;46.10
15880;BME280;61999;51.514;14.614;2022-10-13T02:40:49;100563.19;;;2.64;46.48
15880;BME280;61999;51.514;14.614;2022-10-13T02:43:17;100559.72;;;2.65;46.24
15880;BME280;61999;51.514;14.614;2022-10-13T02:45:44;100559.81;;;2.62;46.26
15880;BME280;61999;51.514;14.614;2022-10-13T02:48:12;100563.31;;;2.61;46.68
15880;BME280;61999;51.514;14.614;2022-10-13T02:50:40;100565.03;;;2.62;46.42
15880;BME280;61999;51.514;14.614;2022-10-13T02:53:09;100556.31;;;2.63;46.36
15880;BME280;61999;51.514;14.614;2022-10-13T02:55:37;100552.91;;;2.61;46.81
15880;BME280;61999;51.514;14.614;2022-10-13T02:58:06;100560.66;;;2.62;46.60
15880;BME280;61999;51.514;14.614;2022-10-13T03:00:34;100555.50;;;2.61;46.52
15880;BME280;61999;51.514;14.614;2022-10-13T03:03:05;100554.72;;;2.59;46.87
15880;BME280;61999;51.514;14.614;2022-10-13T03:05:33;100556.53;;;2.57;46.96
15880;BME280;61999;51.514;14.614;2022-10-13T03:08:01;100553.03;;;2.58;46.71
15880;BME280;61999;51.514;14.614;2022-10-13T03:10:31;100559.16;;;2.57;46.67
15880;BME280;61999;51.514;14.614;2022-10-13T03:12:59;100556.66;;;2.54;47.03
15880;BME280;61999;51.514;14.614;2022-10-13T03:15:27;100553.25;;;2.52;47.17
15880;BME280;61999;51.514;14.614;2022-10-13T03:17:55;100551.56;;;2.51;47.17
15880;BME280;61999;51.514;14.614;2022-10-13T03:20:23;100550.81;;;2.47;47.58
15880;BME280;61999;51.514;14.614;2022-10-13T03:22:51;100560.50;;;2.44;47.53
15880;BME280;61999;51.514;14.614;2022-10-13T03:25:19;100555.41;;;2.40;47.80
15880;BME280;61999;51.514;14.614;2022-10-13T03:27:48;100549.41;;;2.38;47.66
15880;BME280;61999;51.514;14.614;2022-10-13T03:30:16;100555.53;;;2.37;47.64
15880;BME280;61999;51.514;14.614;2022-10-13T03:32:44;100550.44;;;2.34;47.63
15880;BME280;61999;51.514;14.614;2022-10-13T03:35:12;100552.13;;;2.35;47.71
15880;BME280;61999;51.514;14.614;2022-10-13T03:37:40;100554.81;;;2.34;47.79
15880;BME280;61999;51.514;14.614;2022-10-13T03:40:09;100552.19;;;2.34;47.87
15880;BME280;61999;51.514;14.614;2022-10-13T03:42:39;100546.91;;;2.35;48.07
15880;BME280;61999;51.514;14.614;2022-10-13T03:45:09;100556.44;;;2.36;48.17
15880;BME280;61999;51.514;14.614;2022-10-13T03:47:37;100541.66;;;2.37;47.92
15880;BME280;61999;51.514;14.614;2022-10-13T03:50:06;100538.16;;;2.38;48.32
15880;BME280;61999;51.514;14.614;2022-10-13T03:52:34;100530.44;;;2.36;48.19
15880;BME280;61999;51.514;14.614;2022-10-13T03:55:03;100539.91;;;2.37;48.13
15880;BME280;61999;51.514;14.614;2022-10-13T03:57:31;100530.44;;;2.36;48.24
15880;BME280;61999;51.514;14.614;2022-10-13T03:59:59;100527.03;;;2.34;48.37
15880;BME280;61999;51.514;14.614;2022-10-13T04:02:28;100540.03;;;2.34;47.81
15880;BME280;61999;51.514;14.614;2022-10-13T04:04:56;100521.97;;;2.30;48.05
15880;BME280;61999;51.514;14.614;2022-10-13T04:07:24;100521.13;;;2.29;48.23
15880;BME280;61999;51.514;14.614;2022-10-13T04:09:52;100530.59;;;2.32;48.17
15880;BME280;61999;51.514;14.614;2022-10-13T04:12:20;100527.19;;;2.30;48.52
15880;BME280;61999;51.514;14.614;2022-10-13T04:14:48;100534.88;;;2.33;48.50
15880;BME280;61999;51.514;14.614;2022-10-13T04:17:16;100525.25;;;2.35;48.58
15880;BME280;61999;51.514;14.614;2022-10-13T04:19:45;100526.91;;;2.37;48.19
15880;BME280;61999;51.514;14.614;2022-10-13T04:22:13;100533.78;;;2.38;48.42
15880;BME280;61999;51.514;14.614;2022-10-13T04:24:41;100522.38;;;2.43;48.23
15880;BME280;61999;51.514;14.614;2022-10-13T04:27:09;100517.19;;;2.43;48.79
15880;BME280;61999;51.514;14.614;2022-10-13T04:29:37;100521.41;;;2.45;48.60
15880;BME280;61999;51.514;14.614;2022-10-13T04:32:04;100520.53;;;2.45;48.74
15880;BME280;61999;51.514;14.614;2022-10-13T04:34:33;100510.13;;;2.45;48.74
15880;BME280;61999;51.514;14.614;2022-10-13T04:37:02;100515.31;;;2.46;48.78
15880;BME280;61999;51.514;14.614;2022-10-13T04:39:30;100510.13;;;2.45;48.65
15880;BME280;61999;51.514;14.614;2022-10-13T04:41:58;100506.66;;;2.46;48.93
15880;BME280;61999;51.514;14.614;2022-10-13T04:44:26;100509.28;;;2.44;48.97
15880;BME280;61999;51.514;14.614;2022-10-13T04:46:54;100507.72;;;2.40;48.60
15880;BME280;61999;51.514;14.614;2022-10-13T04:49:23;100504.34;;;2.38;48.89
15880;BME280;61999;51.514;14.614;2022-10-13T04:51:51;100506.13;;;2.36;49.16
15880;BME280;61999;51.514;14.614;2022-10-13T04:54:20;100502.75;;;2.34;48.61
15880;BME280;61999;51.514;14.614;2022-10-13T04:56:48;100508.94;;;2.31;49.05
15880;BME280;61999;51.514;14.614;2022-10-13T04:59:16;100517.72;;;2.27;49.21
15880;BME280;61999;51.514;14.614;2022-10-13T05:01:43;100510.84;;;2.26;49.01
15880;BME280;61999;51.514;14.614;2022-10-13T05:04:11;100500.56;;;2.23;49.22
15880;BME280;61999;51.514;14.614;2022-10-13T05:06:42;100500.69;;;2.20;49.67
15880;BME280;61999;51.514;14.614;2022-10-13T05:09:26;100504.28;;;2.16;49.73
15880;BME280;61999;51.514;14.614;2022-10-13T05:11:54;100511.19;;;2.17;49.27
15880;BME280;61999;51.514;14.614;2022-10-13T05:14:23;100499.00;;;2.19;49.29
15880;BME280;61999;51.514;14.614;2022-10-13T05:16:51;100488.47;;;2.22;49.30
15880;BME280;61999;51.514;14.614;2022-10-13T05:19:19;100498.75;;;2.25;49.72
15880;BME280;61999;51.514;14.614;2022-10-13T05:21:46;100508.09;;;2.31;49.62
15880;BME280;61999;51.514;14.614;2022-10-13T05:24:14;100501.91;;;2.33;49.37
15880;BME280;61999;51.514;14.614;2022-10-13T05:26:44;100504.41;;;2.36;49.14
15880;BME280;61999;51.514;14.614;2022-10-13T05:29:12;100505.28;;;2.35;49.48
15880;BME280;61999;51.514;14.614;2022-10-13T05:31:40;100505.28;;;2.35;49.42
15880;BME280;61999;51.514;14.614;2022-10-13T05:34:07;100506.22;;;2.34;49.18
15880;BME280;61999;51.514;14.614;2022-10-13T05:36:36;100504.53;;;2.33;49.27
15880;BME280;61999;51.514;14.614;2022-10-13T05:39:05;100502.81;;;2.32;49.52
15880;BME280;61999;51.514;14.614;2022-10-13T05:41:34;100501.16;;;2.30;49.25
15880;BME280;61999;51.514;14.614;2022-10-13T05:44:07;100502.00;;;2.30;49.19
15880;BME280;61999;51.514;14.614;2022-10-13T05:46:36;100506.50;;;2.27;49.66
15880;BME280;61999;51.514;14.614;2022-10-13T05:49:03;100505.66;;;2.26;49.03
15880;BME280;61999;51.514;14.614;2022-10-13T05:51:35;100502.25;;;2.24;49.36
15880;BME280;61999;51.514;14.614;2022-10-13T05:54:09;100498.88;;;2.22;49.50
15880;BME280;61999;51.514;14.614;2022-10-13T05:56:45;100499.00;;;2.19;50.04
15880;BME280;61999;51.514;14.614;2022-10-13T05:59:18;100494.63;;;2.20;49.68
15880;BME280;61999;51.514;14.614;2022-10-13T06:01:51;100497.28;;;2.18;49.43
15880;BME280;61999;51.514;14.614;2022-10-13T06:04:25;100497.34;;;2.16;50.49
15880;BME280;61999;51.514;14.614;2022-10-13T06:06:56;100492.16;;;2.16;50.20
15880;BME280;61999;51.514;14.614;2022-10-13T06:09:27;100494.63;;;2.20;50.08
15880;BME280;61999;51.514;14.614;2022-10-13T06:12:00;100498.13;;;2.18;50.17
15880;BME280;61999;51.514;14.614;2022-10-13T06:14:29;100488.59;;;2.19;50.25
15880;BME280;61999;51.514;14.614;2022-10-13T06:16:57;100491.91;;;2.23;50.96
15880;BME280;61999;51.514;14.614;2022-10-13T06:19:25;100489.34;;;2.21;50.77
15880;BME280;61999;51.514;14.614;2022-10-13T06:21:53;100493.44;;;2.28;50.80
15880;BME280;61999;51.514;14.614;2022-10-13T06:24:21;100492.34;;;2.34;50.96
15880;BME280;61999;51.514;14.614;2022-10-13T06:26:49;100490.47;;;2.37;51.13
15880;BME280;61999;51.514;14.614;2022-10-13T06:29:17;100490.25;;;2.44;51.44
15880;BME280;61999;51.514;14.614;2022-10-13T06:31:46;100487.41;;;2.50;51.29
15880;BME280;61999;51.514;14.614;2022-10-13T06:34:14;100479.31;;;2.57;51.42
15880;BME280;61999;51.514;14.614;2022-10-13T06:36:42;100486.81;;;2.65;51.51
15880;BME280;61999;51.514;14.614;2022-10-13T06:39:10;100490.06;;;2.70;52.69
15880;BME280;61999;51.514;14.614;2022-10-13T06:41:37;100482.03;;;2.76;52.87
15880;BME280;61999;51.514;14.614;2022-10-13T06:44:05;100484.28;;;2.85;52.85
15880;BME280;61999;51.514;14.614;2022-10-13T06:46:33;100482.97;;;2.96;52.40
15880;BME280;61999;51.514;14.614;2022-10-13T06:49:02;100486.13;;;3.04;52.04
15880;BME280;61999;51.514;14.614;2022-10-13T06:51:31;100484.19;;;3.09;52.65
15880;BME280;61999;51.514;14.614;2022-10-13T06:53:58;100480.34;;;3.18;52.27
15880;BME280;61999;51.514;14.614;2022-10-13T06:56:28;100480.81;;;3.27;52.33
15880;BME280;61999;51.514;14.614;2022-10-13T06:58:56;100484.75;;;3.38;52.12
15880;BME280;61999;51.514;14.614;2022-10-13T07:01:23;100482.34;;;3.54;52.06
15880;BME280;61999;51.514;14.614;2022-10-13T07:03:51;100482.38;;;3.72;52.29
15880;BME280;61999;51.514;14.614;2022-10-13T07:06:21;100479.59;;;3.96;52.22
15880;BME280;61999;51.514;14.614;2022-10-13T07:08:49;100482.91;;;4.18;52.26
15880;BME280;61999;51.514;14.614;2022-10-13T07:11:17;100477.22;;;4.48;52.42
15880;BME280;61999;51.514;14.614;2022-10-13T07:13:45;100481.28;;;4.73;53.06
15880;BME280;61999;51.514;14.614;2022-10-13T07:16:14;100471.97;;;5.03;52.84
15880;BME280;61999;51.514;14.614;2022-10-13T07:18:42;100473.06;;;5.34;52.53
15880;BME280;61999;51.514;14.614;2022-10-13T07:21:10;100481.91;;;5.65;52.54
15880;BME280;61999;51.514;14.614;2022-10-13T07:23:39;100479.75;;;5.90;52.67
15880;BME280;61999;51.514;14.614;2022-10-13T07:26:08;100473.38;;;6.12;52.23
15880;BME280;61999;51.514;14.614;2022-10-13T07:28:37;100470.69;;;6.29;52.26
15880;BME280;61999;51.514;14.614;2022-10-13T07:31:09;100472.44;;;6.44;51.92
15880;BME280;61999;51.514;14.614;2022-10-13T07:33:41;100471.78;;;6.57;51.46
15880;BME280;61999;51.514;14.614;2022-10-13T07:36:11;100471.34;;;6.64;51.48
15880;BME280;61999;51.514;14.614;2022-10-13T07:38:40;100468.47;;;6.53;52.31
15880;BME280;61999;51.514;14.614;2022-10-13T07:41:10;100473.53;;;6.72;51.71
15880;BME280;61999;51.514;14.614;2022-10-13T07:43:40;100467.19;;;6.76;51.76
15880;BME280;61999;51.514;14.614;2022-10-13T07:46:11;100469.31;;;6.85;51.71
15880;BME280;61999;51.514;14.614;2022-10-13T07:48:39;100472.69;;;6.87;51.72
15880;BME280;61999;51.514;14.614;2022-10-13T07:51:10;100463.44;;;6.96;51.58
15880;BME280;61999;51.514;14.614;2022-10-13T07:53:41;100464.13;;;7.00;51.36
15880;BME280;61999;51.514;14.614;2022-10-13T07:56:12;100452.28;;;6.93;52.24
15880;BME280;61999;51.514;14.614;2022-10-13T07:58:43;100457.00;;;7.02;51.93
15880;BME280;61999;51.514;14.614;2022-10-13T08:01:13;100458.72;;;7.03;52.06
15880;BME280;61999;51.514;14.614;2022-10-13T08:03:43;100456.63;;;7.08;52.02
15880;BME280;61999;51.514;14.614;2022-10-13T08:06:13;100455.53;;;7.12;51.59
15880;BME280;61999;51.514;14.614;2022-10-13T08:08:42;100463.22;;;7.15;51.73
15880;BME280;61999;51.514;14.614;2022-10-13T08:11:14;100457.63;;;7.21;51.86
15880;BME280;61999;51.514;14.614;2022-10-13T08:13:45;100470.28;;;7.29;51.43
15880;BME280;61999;51.514;14.614;2022-10-13T08:16:13;100463.47;;;7.41;51.85
15880;BME280;61999;51.514;14.614;2022-10-13T08:18:41;100457.28;;;7.56;52.13
15880;BME280;61999;51.514;14.614;2022-10-13T08:21:13;100457.03;;;7.75;52.09
15880;BME280;61999;51.514;14.614;2022-10-13T08:24:04;100453.91;;;7.54;52.90
15880;BME280;61999;51.514;14.614;2022-10-13T08:26:32;100453.22;;;7.95;52.86
15880;BME280;61999;51.514;14.614;2022-10-13T08:29:00;100451.63;;;7.78;53.01
15880;BME280;61999;51.514;14.614;2022-10-13T08:31:43;100454.59;;;8.15;52.98
15880;BME280;61999;51.514;14.614;2022-10-13T08:34:11;100446.75;;;8.69;52.86
15880;BME280;61999;51.514;14.614;2022-10-13T08:36:39;100449.50;;;8.53;50.45
15880;BME280;61999;51.514;14.614;2022-10-13T08:39:10;100445.28;;;8.92;51.04
15880;BME280;61999;51.514;14.614;2022-10-13T08:41:42;100445.28;;;8.92;50.93
15880;BME280;61999;51.514;14.614;2022-10-13T08:44:20;100443.00;;;9.39;49.47
15880;BME280;61999;51.514;14.614;2022-10-13T08:47:19;100437.84;;;9.37;50.19
15880;BME280;61999;51.514;14.614;2022-10-13T08:49:49;100437.53;;;9.29;48.90
15880;BME280;61999;51.514;14.614;2022-10-13T08:52:22;100441.81;;;9.17;49.80
15880;BME280;61999;51.514;14.614;2022-10-13T08:54:54;100438.13;;;8.40;51.14
15880;BME280;61999;51.514;14.614;2022-10-13T08:57:23;100437.00;;;8.30;51.52
15880;BME280;61999;51.514;14.614;2022-10-13T08:59:51;100439.88;;;8.94;50.64
15880;BME280;61999;51.514;14.614;2022-10-13T09:02:24;100445.75;;;9.88;48.55
15880;BME280;61999;51.514;14.614;2022-10-13T09:04:52;100441.22;;;9.26;49.95
15880;BME280;61999;51.514;14.614;2022-10-13T09:07:25;100437.16;;;8.68;50.81
15880;BME280;61999;51.514;14.614;2022-10-13T09:09:56;100439.00;;;9.58;50.25
15880;BME280;61999;51.514;14.614;2022-10-13T09:12:25;100436.88;;;10.63;48.28
15880;BME280;61999;51.514;14.614;2022-10-13T09:14:59;100429.00;;;10.26;47.96
15880;BME280;61999;51.514;14.614;2022-10-13T09:17:29;100428.72;;;10.42;46.55
15880;BME280;61999;51.514;14.614;2022-10-13T09:20:05;100429.13;;;11.54;46.06
15880;BME280;61999;51.514;14.614;2022-10-13T09:22:35;100426.94;;;12.27;45.27
15880;BME280;61999;51.514;14.614;2022-10-13T09:25:17;100425.38;;;12.13;42.47
15880;BME280;61999;51.514;14.614;2022-10-13T09:27:49;100414.03;;;12.45;42.45
15880;BME280;61999;51.514;14.614;2022-10-13T09:30:28;100417.41;;;13.21;40.67
15880;BME280;61999;51.514;14.614;2022-10-13T09:33:20;100415.66;;;13.10;40.91
15880;BME280;61999;51.514;14.614;2022-10-13T09:36:05;100416.72;;;12.98;39.65
15880;BME280;61999;51.514;14.614;2022-10-13T09:38:38;100417.88;;;12.94;40.71
15880;BME280;61999;51.514;14.614;2022-10-13T09:41:14;100404.28;;;13.20;41.55
15880;BME280;61999;51.514;14.614;2022-10-13T09:44:11;100424.00;;;13.57;39.27
15880;BME280;61999;51.514;14.614;2022-10-13T09:46:50;100413.34;;;14.19;39.86
15880;BME280;61999;51.514;14.614;2022-10-13T09:49:36;100405.41;;;14.19;38.00
15880;BME280;61999;51.514;14.614;2022-10-13T09:52:14;100402.09;;;14.75;39.10
15880;BME280;61999;51.514;14.614;2022-10-13T09:54:46;100404.50;;;14.59;38.40
15880;BME280;61999;51.514;14.614;2022-10-13T09:57:25;100400.22;;;14.17;38.56
15880;BME280;61999;51.514;14.614;2022-10-13T10:00:09;100398.91;;;14.62;38.42
15880;BME280;61999;51.514;14.614;2022-10-13T10:02:46;100389.03;;;15.30;38.11
15880;BME280;61999;51.514;14.614;2022-10-13T10:05:24;100391.69;;;15.68;36.75
15880;BME280;61999;51.514;14.614;2022-10-13T10:08:01;100385.84;;;15.64;36.13
15880;BME280;61999;51.514;14.614;2022-10-13T10:10:35;100389.97;;;15.76;35.46
15880;BME280;61999;51.514;14.614;2022-10-13T10:13:10;100386.63;;;16.02;36.51
15880;BME280;61999;51.514;14.614;2022-10-13T10:15:51;100378.75;;;15.82;34.78
15880;BME280;61999;51.514;14.614;2022-10-13T10:18:30;100386.66;;;15.27;35.50
15880;BME280;61999;51.514;14.614;2022-10-13T10:21:07;100381.81;;;16.51;35.18
15880;BME280;61999;51.514;14.614;2022-10-13T10:23:43;100380.09;;;16.14;34.61
15880;BME280;61999;51.514;14.614;2022-10-13T10:26:17;100372.28;;;17.10;34.65
15880;BME280;61999;51.514;14.614;2022-10-13T10:29:15;100380.63;;;17.76;33.25
15880;BME280;61999;51.514;14.614;2022-10-13T10:32:11;100370.53;;;17.53;32.41
15880;BME280;61999;51.514;14.614;2022-10-13T10:34:49;100368.69;;;17.88;32.13
15880;BME280;61999;51.514;14.614;2022-10-13T10:37:36;100362.19;;;18.07;30.65
15880;BME280;61999;51.514;14.614;2022-10-13T10:40:23;100367.97;;;17.44;31.37
15880;BME280;61999;51.514;14.614;2022-10-13T10:43:18;100358.34;;;18.01;30.40
15880;BME280;61999;51.514;14.614;2022-10-13T10:45:55;100361.13;;;18.50;31.71
15880;BME280;61999;51.514;14.614;2022-10-13T10:48:29;100367.00;;;19.42;31.40
15880;BME280;61999;51.514;14.614;2022-10-13T10:50:59;100358.69;;;19.29;29.29
15880;BME280;61999;51.514;14.614;2022-10-13T10:53:33;100356.19;;;19.28;28.31
15880;BME280;61999;51.514;14.614;2022-10-13T10:56:12;100348.44;;;18.69;29.46
15880;BME280;61999;51.514;14.614;2022-10-13T10:58:49;100347.75;;;17.25;32.11
15880;BME280;61999;51.514;14.614;2022-10-13T11:01:32;100342.38;;;18.91;30.52
15880;BME280;61999;51.514;14.614;2022-10-13T11:04:34;100344.09;;;18.51;30.17
15880;BME280;61999;51.514;14.614;2022-10-13T11:07:03;100340.00;;;17.90;30.89
15880;BME280;61999;51.514;14.614;2022-10-13T11:10:14;100330.34;;;17.97;31.08
15880;BME280;61999;51.514;14.614;2022-10-13T11:13:19;100325.00;;;18.95;30.38
15880;BME280;61999;51.514;14.614;2022-10-13T11:15:47;100318.56;;;19.37;29.75
15880;BME280;61999;51.514;14.614;2022-10-13T11:19:02;100321.09;;;21.00;28.83
15880;BME280;61999;51.514;14.614;2022-10-13T11:22:12;100312.66;;;21.84;26.49
15880;BME280;61999;51.514;14.614;2022-10-13T11:24:59;100312.56;;;20.82;27.38
15880;BME280;61999;51.514;14.614;2022-10-13T11:27:42;100312.81;;;21.61;26.27
15880;BME280;61999;51.514;14.614;2022-10-13T11:30:40;100306.84;;;22.66;25.49
15880;BME280;61999;51.514;14.614;2022-10-13T11:33:51;100287.56;;;23.32;25.49
15880;BME280;61999;51.514;14.614;2022-10-13T11:36:53;100279.19;;;23.62;23.31
15880;BME280;61999;51.514;14.614;2022-10-13T11:39:58;100284.38;;;21.67;25.58
15880;BME280;61999;51.514;14.614;2022-10-13T11:42:52;100286.56;;;22.14;24.83
15880;BME280;61999;51.514;14.614;2022-10-13T11:45:49;100286.09;;;22.11;25.23
15880;BME280;61999;51.514;14.614;2022-10-13T11:48:52;100280.19;;;22.71;24.81
15880;BME280;61999;51.514;14.614;2022-10-13T11:51:35;100281.25;;;19.05;28.68
15880;BME280;61999;51.514;14.614;2022-10-13T11:54:22;100275.16;;;18.22;30.68
15880;BME280;61999;51.514;14.614;2022-10-13T11:56:54;100276.47;;;19.94;28.19
15880;BME280;61999;51.514;14.614;2022-10-13T11:59:26;100275.44;;;20.93;27.68
15880;BME280;61999;51.514;14.614;2022-10-13T12:01:58;100274.69;;;21.66;25.74
15880;BME280;61999;51.514;14.614;2022-10-13T12:04:27;100269.63;;;22.14;25.80
15880;BME280;61999;51.514;14.614;2022-10-13T12:06:59;100258.53;;;20.55;26.17
15880;BME280;61999;51.514;14.614;2022-10-13T12:09:30;100251.34;;;20.70;26.79
15880;BME280;61999;51.514;14.614;2022-10-13T12:12:03;100257.38;;;21.90;25.49
15880;BME280;61999;51.514;14.614;2022-10-13T12:14:39;100251.72;;;21.99;24.40
15880;BME280;61999;51.514;14.614;2022-10-13T12:17:21;100245.66;;;21.76;25.29
15880;BME280;61999;51.514;14.614;2022-10-13T12:19:50;100245.97;;;20.70;26.45
15880;BME280;61999;51.514;14.614;2022-10-13T12:22:18;100239.13;;;19.07;28.32
15880;BME280;61999;51.514;14.614;2022-10-13T12:24:58;100238.28;;;20.00;26.76
15880;BME280;61999;51.514;14.614;2022-10-13T12:27:30;100241.72;;;17.69;30.35
15880;BME280;61999;51.514;14.614;2022-10-13T12:29:59;100226.44;;;17.21;31.22
15880;BME280;61999;51.514;14.614;2022-10-13T12:32:32;100221.13;;;17.96;30.15
15880;BME280;61999;51.514;14.614;2022-10-13T12:35:17;100226.59;;;18.35;29.89
15880;BME280;61999;51.514;14.614;2022-10-13T12:37:46;100226.59;;;19.07;28.71
15880;BME280;61999;51.514;14.614;2022-10-13T12:40:17;100223.53;;;19.50;27.83
15880;BME280;61999;51.514;14.614;2022-10-13T12:42:47;100237.16;;;17.37;30.48
15880;BME280;61999;51.514;14.614;2022-10-13T12:45:19;100234.63;;;17.94;29.46
15880;BME280;61999;51.514;14.614;2022-10-13T12:47:50;100235.03;;;18.80;29.17
15880;BME280;61999;51.514;14.614;2022-10-13T12:50:36;100230.94;;;18.12;29.22
15880;BME280;61999;51.514;14.614;2022-10-13T12:53:16;100225.22;;;17.66;29.64
15880;BME280;61999;51.514;14.614;2022-10-13T12:55:55;100229.53;;;17.58;30.33
15880;BME280;61999;51.514;14.614;2022-10-13T12:58:28;100215.31;;;16.91;31.60
15880;BME280;61999;51.514;14.614;2022-10-13T13:01:08;100222.31;;;16.92;31.09
15880;BME280;61999;51.514;14.614;2022-10-13T13:03:38;100218.06;;;16.47;32.36
15880;BME280;61999;51.514;14.614;2022-10-13T13:06:18;100217.31;;;16.37;32.26
15880;BME280;61999;51.514;14.614;2022-10-13T13:12:21;100221.59;;;14.75;34.66
15880;BME280;61999;51.514;14.614;2022-10-13T13:14:50;100218.50;;;14.23;35.17
15880;BME280;61999;51.514;14.614;2022-10-13T13:17:28;100218.53;;;15.07;34.36
15880;BME280;61999;51.514;14.614;2022-10-13T13:20:25;100214.84;;;16.43;32.40
15880;BME280;61999;51.514;14.614;2022-10-13T13:22:54;100219.81;;;16.56;31.91
15880;BME280;61999;51.514;14.614;2022-10-13T13:25:23;100210.53;;;17.45;30.74